createdAt,value
2022-12-08T00:03:25.030Z,10.15
2022-12-08T00:10:48.312Z,4.97
2022-12-08T00:17:48.747Z,5.45
2022-12-08T00:24:50.522Z,8.32
2022-12-08T00:31:52.404Z,2.85
2022-12-08T00:38:54.619Z,5.07
2022-12-08T00:45:56.661Z,7.80
2022-12-08T00:52:58.627Z,10.07
2022-12-08T01:00:00.670Z,3.47
2022-12-08T01:07:02.438Z,3.03
2022-12-08T01:14:04.428Z,6.85
2022-12-08T01:21:07.350Z,4.82
2022-12-08T01:28:09.093Z,3.47
2022-12-08T01:35:10.924Z,7.57
2022-12-08T01:42:22.883Z,8.45
2022-12-08T01:49:28.341Z,7.20
2022-12-08T01:56:38.065Z,5.93
2022-12-08T02:03:42.521Z,5.75
2022-12-08T02:10:44.335Z,16.85
2022-12-08T02:18:13.526Z,5.32
2022-12-08T02:25:29.423Z,15.40
2022-12-08T02:32:46.555Z,4.25
2022-12-08T02:39:57.153Z,8.48
2022-12-08T02:47:01.632Z,14.82
2022-12-08T02:54:03.970Z,4.72
2022-12-08T03:01:08.799Z,4.63
2022-12-08T03:08:20.539Z,15.27
2022-12-08T03:15:22.489Z,7.22
2022-12-08T03:22:25.687Z,13.75
2022-12-08T03:29:27.756Z,4.05
2022-12-08T03:36:29.633Z,3.70
2022-12-08T03:43:31.464Z,7.57
2022-12-08T03:50:33.181Z,6.13
2022-12-08T03:57:35.018Z,6.43
2022-12-08T04:04:37.095Z,8.80
2022-12-08T04:11:38.941Z,9.65
2022-12-08T04:18:40.881Z,6.30
2022-12-08T04:25:42.775Z,4.78
2022-12-08T04:32:47.547Z,5.82
2022-12-08T04:39:49.519Z,3.45
2022-12-08T04:46:51.546Z,9.90
2022-12-08T04:53:53.501Z,3.50
2022-12-08T05:00:55.600Z,11.55
2022-12-08T05:07:57.643Z,5.32
2022-12-08T05:14:59.514Z,14.57
2022-12-08T05:22:01.408Z,7.30
2022-12-08T05:29:03.176Z,12.65
2022-12-08T05:36:05.058Z,4.95
2022-12-08T05:43:07.196Z,13.00
2022-12-08T05:50:09.030Z,5.13
2022-12-08T05:57:10.787Z,9.05
2022-12-08T06:04:12.725Z,3.88
2022-12-08T06:11:33.292Z,11.20
2022-12-08T06:18:35.042Z,5.15
2022-12-08T06:25:36.932Z,10.15
2022-12-08T06:32:38.793Z,11.00
2022-12-08T06:39:40.753Z,2.67
2022-12-08T06:46:42.538Z,17.38
2022-12-08T06:53:44.745Z,8.40
2022-12-08T07:00:47.189Z,8.60
2022-12-08T07:07:49.006Z,9.73
2022-12-08T07:14:50.922Z,8.02
2022-12-08T07:21:52.756Z,10.27
2022-12-08T07:28:54.828Z,6.85
2022-12-08T07:36:03.889Z,16.27
2022-12-08T07:43:05.871Z,5.22
2022-12-08T07:50:08.362Z,3.63
2022-12-08T07:57:10.145Z,3.67
2022-12-08T08:04:12.005Z,4.78
2022-12-08T08:11:20.867Z,7.72
2022-12-08T08:25:25.162Z,3.35
2022-12-08T08:32:26.943Z,7.80
2022-12-08T08:39:30.484Z,6.63
2022-12-08T08:46:32.347Z,4.47
2022-12-08T08:53:34.122Z,7.35
2022-12-08T09:00:35.952Z,11.25
2022-12-08T09:07:37.953Z,7.40
2022-12-08T09:14:39.833Z,12.32
2022-12-08T09:21:41.712Z,9.25
2022-12-08T09:28:46.880Z,6.65
2022-12-08T09:35:48.865Z,10.45
2022-12-08T09:42:50.666Z,7.72
2022-12-08T09:50:00.552Z,4.30
2022-12-08T09:57:08.652Z,10.48
2022-12-08T10:04:22.411Z,5.78
2022-12-08T10:11:31.806Z,3.83
2022-12-08T10:18:34.328Z,7.35
2022-12-08T10:25:43.435Z,6.25
2022-12-08T10:32:46.897Z,10.95
2022-12-08T10:39:58.645Z,11.05
2022-12-08T10:47:00.615Z,7.93
2022-12-08T10:54:03.485Z,9.05
2022-12-08T11:01:07.214Z,6.78
2022-12-08T11:08:09.270Z,9.25
2022-12-08T11:15:15.752Z,6.90
2022-12-08T11:22:26.720Z,6.45
2022-12-08T11:36:33.232Z,6.60
2022-12-08T11:43:34.913Z,14.63
2022-12-08T11:50:42.732Z,11.75
2022-12-08T11:57:45.110Z,15.73
2022-12-08T12:04:50.912Z,12.57
2022-12-08T12:12:11.681Z,16.95
2022-12-08T12:19:15.766Z,16.08
2022-12-08T12:26:28.905Z,18.40
2022-12-08T12:33:31.254Z,23.35
2022-12-08T12:40:39.914Z,19.02
2022-12-08T12:47:56.265Z,20.13
2022-12-08T12:54:58.538Z,18.42
2022-12-08T13:02:02.823Z,14.30
2022-12-08T13:09:04.853Z,19.10
2022-12-08T13:16:18.610Z,13.35
2022-12-08T13:23:36.544Z,18.88
2022-12-08T13:30:46.409Z,22.35
2022-12-08T13:37:54.793Z,40.35
2022-12-08T13:45:33.505Z,36.00
2022-12-08T13:54:16.488Z,14.65
2022-12-08T14:00:03.205Z,19.80
2022-12-08T14:07:05.339Z,17.25
2022-12-08T14:14:14.517Z,19.02
2022-12-08T14:21:21.762Z,13.35
2022-12-08T14:28:24.801Z,22.55
2022-12-08T14:35:33.901Z,16.35
2022-12-08T14:42:43.933Z,17.88
2022-12-08T14:49:49.544Z,21.35
2022-12-08T14:56:53.385Z,24.60
2022-12-08T15:04:06.951Z,22.25
2022-12-08T15:11:28.408Z,18.92
2022-12-08T15:18:40.981Z,20.42
2022-12-08T15:25:42.950Z,21.60
2022-12-08T15:32:44.777Z,21.05
2022-12-08T15:39:46.581Z,24.17
2022-12-08T15:46:50.276Z,23.42
2022-12-08T15:53:52.465Z,25.58
2022-12-08T16:00:56.337Z,33.10
2022-12-08T16:08:01.689Z,26.63
2022-12-08T16:29:56.407Z,38.30
2022-12-08T16:36:58.305Z,35.28
2022-12-08T16:44:02.424Z,34.28
2022-12-08T16:51:04.858Z,44.88
2022-12-08T16:58:07.957Z,53.63
2022-12-08T17:05:20.144Z,49.70
2022-12-08T17:12:24.663Z,47.45
2022-12-08T17:19:29.986Z,36.88
2022-12-08T17:26:35.544Z,60.75
2022-12-08T17:33:41.030Z,48.63
2022-12-08T17:40:44.732Z,46.88
2022-12-08T17:47:46.691Z,51.17
2022-12-08T17:54:50.583Z,41.30
2022-12-08T18:01:54.617Z,44.30
2022-12-08T18:08:57.561Z,38.95
2022-12-08T18:15:59.876Z,43.72
2022-12-08T18:23:04.572Z,55.30
2022-12-08T18:30:08.226Z,51.35
2022-12-08T18:37:10.651Z,49.33
2022-12-08T18:44:12.930Z,52.25
2022-12-08T18:51:21.266Z,45.88
2022-12-08T18:58:24.645Z,39.60
2022-12-08T19:05:26.643Z,58.00
2022-12-08T19:12:29.214Z,63.08
2022-12-08T19:19:31.694Z,50.83
2022-12-08T19:26:33.992Z,60.10
2022-12-08T19:33:42.786Z,53.83
2022-12-08T19:41:21.757Z,59.60
2022-12-08T19:48:24.401Z,52.92
2022-12-08T19:55:27.435Z,55.33
2022-12-08T20:02:30.377Z,44.70
2022-12-08T20:09:34.351Z,46.75
2022-12-08T20:16:39.693Z,47.50
2022-12-08T20:23:42.700Z,48.17
2022-12-08T20:30:47.421Z,60.22
2022-12-08T20:37:49.410Z,47.80
2022-12-08T20:44:52.001Z,50.10
2022-12-08T20:51:57.250Z,44.65
2022-12-08T20:58:59.817Z,50.22
2022-12-08T21:06:02.008Z,44.95
2022-12-08T21:13:04.299Z,41.88
2022-12-08T21:20:07.186Z,35.90
2022-12-08T21:27:09.875Z,44.60
2022-12-08T21:34:11.839Z,41.50
2022-12-08T21:41:16.391Z,44.22
2022-12-08T21:48:18.612Z,51.17
2022-12-08T21:55:21.926Z,54.88
2022-12-08T22:02:24.188Z,41.25
2022-12-08T22:09:26.300Z,49.22
2022-12-08T22:16:28.531Z,37.88
2022-12-08T22:23:30.424Z,42.45
2022-12-08T22:30:38.862Z,36.80
2022-12-08T22:37:41.385Z,48.83
2022-12-08T22:44:43.978Z,38.55
2022-12-08T22:51:46.104Z,32.13
2022-12-08T22:58:49.223Z,35.10
2022-12-08T23:05:51.192Z,35.05
2022-12-08T23:12:53.713Z,34.40
2022-12-08T23:19:55.788Z,32.83
2022-12-08T23:26:57.646Z,37.88
2022-12-08T23:33:59.506Z,41.15
2022-12-08T23:41:05.609Z,38.88
2022-12-08T23:48:07.420Z,35.67
2022-12-08T23:55:09.450Z,38.72
